CYNC

Wemindji Airport

Code ICAO CYNC
Code IATA YNC
Nom Wemindji Airport
Emplacement Wemindji, Quebec, CA
Élévation 66 pieds / 20.1 mètres
Latitude 53.01055556
Longitude -78.83111111
METAR CYNC 082100Z 14004KT 100V180 15SM FEW026 SCT043 BKN100 BKN300 M20/M22 A3008 RMK SC2SC2AS1CI1 LAST STFD OBS/NEXT 091400UTC SLP189
Informations extras Afficher cartes et CFS
Afficher NOTAMS
Piste Longueur Largeur Surface Élévation
10 3511 ft 100 ft GRAVEL 30 ft
28 3511 ft 100 ft GRAVEL 66 ft